Prevail — NYRW — position and weather

sailwx.info

Track history (hours):
 
Tides and Currents Weather Stations Pressure Air Temp Water Temp Dewpoint Dewpoint Depression Visibility Wind Speed Wind Dir Waves Ship Positions

Prevail

Last reported at 2017-Nov-18 17:27 UTC. Time now 2017-Nov-24 16:30 UTC.
Position N 34°38' W 076°52'.

Length 68 m; draft 4.9 m.

Type: Military. MMSI: 367841000.

Date/timePositionNaut miles runAvg speedWind from/ knotsBaromVisibWave heightAir tempDewpointWater temp
2017-Nov-18 17:27N 34°38' W 076°52'2 5.1
2017-Nov-18 17:00N 34°38' W 076°50'3 5.1
2017-Nov-18 16:30N 34°38' W 076°47'3 5.4
2017-Nov-18 16:00N 34°38' W 076°43'3 5.7
2017-Nov-18 15:30N 34°40' W 076°40'4 7.0
2017-Nov-18 15:00N 34°43' W 076°42'0 0.0
2017-Nov-18 14:30N 34°43' W 076°42'0 0.0
2017-Nov-18 14:00N 34°43' W 076°42'0 0.0
2017-Nov-18 13:30N 34°43' W 076°42'0 0.0
2017-Nov-18 13:00N 34°43' W 076°42'0 0.0
2017-Nov-18 12:30N 34°43' W 076°42'0 0.0
2017-Nov-18 12:00N 34°43' W 076°42'0 0.0
2017-Nov-18 11:27N 34°43' W 076°42'0 0.0
2017-Nov-18 11:00N 34°43' W 076°42'0 0.0
2017-Nov-18 10:30N 34°43' W 076°42'0 0.0
2017-Nov-18 10:00N 34°43' W 076°42'0 0.0
2017-Nov-18 09:24N 34°43' W 076°42'0 0.0
2017-Nov-18 09:00N 34°43' W 076°42'0 0.0
2017-Nov-18 08:30N 34°43' W 076°42'0 0.0
2017-Nov-18 08:00N 34°43' W 076°42'0 0.0
2017-Nov-18 07:30N 34°43' W 076°42'0 0.0
2017-Nov-18 07:00N 34°43' W 076°42'0 0.0
2017-Nov-18 06:30N 34°43' W 076°42'0 0.0
2017-Nov-18 06:00N 34°43' W 076°42'0 0.0
2017-Nov-18 05:30N 34°43' W 076°42'0 0.0
2017-Nov-18 05:00N 34°43' W 076°42'0 0.0
2017-Nov-18 04:30N 34°43' W 076°42'0 0.0
2017-Nov-18 04:00N 34°43' W 076°42'0 0.0
2017-Nov-18 03:30N 34°43' W 076°42'0 0.0
2017-Nov-18 03:00N 34°43' W 076°42'0 0.0
2017-Nov-18 02:30N 34°43' W 076°42'0 0.0
2017-Nov-18 02:00N 34°43' W 076°42'0 0.0
2017-Nov-18 01:30N 34°43' W 076°42'0 0.0
2017-Nov-18 01:00N 34°43' W 076°42'0 0.0
2017-Nov-18 00:30N 34°43' W 076°42'0 0.0
2017-Nov-18 00:00N 34°43' W 076°42'0 0.0
2017-Nov-17 23:31N 34°43' W 076°42'2 4.6
2017-Nov-17 23:01N 34°41' W 076°40'5 9.6
2017-Nov-17 22:31N 34°37' W 076°43'6 0.8
2017-Nov-17 15:04N 34°31' W 076°43'0 3.1
2017-Nov-17 15:00N 34°31' W 076°43'1 1.2
2017-Nov-17 14:16N 34°32' W 076°44'2 8.3
2017-Nov-17 13:59N 34°34' W 076°44'3 6.8
2017-Nov-17 13:30N 34°37' W 076°43'2 4.1
2017-Nov-17 13:01N 34°38' W 076°41'0 0.4
2017-Nov-17 12:31N 34°38' W 076°41'1 1.6
2017-Nov-17 12:01N 34°39' W 076°42'3 5.1
2017-Nov-17 11:30N 34°38' W 076°45'2 4.0
2017-Nov-17 11:01N 34°39' W 076°43'0 0.6
2017-Nov-17 10:30N 34°38' W 076°42'2 4.8
2017-Nov-17 10:01N 34°38' W 076°45'2 4.8
2017-Nov-17 09:31N 34°38' W 076°48'2 4.7
2017-Nov-17 09:01N 34°38' W 076°51'2 4.1
2017-Nov-17 08:31N 34°37' W 076°53'2 3.4
2017-Nov-17 08:00N 34°37' W 076°55'1 1.7
2017-Nov-17 07:28N 34°37' W 076°54'2 3.9
2017-Nov-17 07:00N 34°37' W 076°52'2 3.8
2017-Nov-17 06:31N 34°38' W 076°50'2 3.8
2017-Nov-17 06:01N 34°38' W 076°47'1 2.2
2017-Nov-17 05:31N 34°38' W 076°46'2 4.2
2017-Nov-17 05:01N 34°38' W 076°49'2 4.3
2017-Nov-17 04:31N 34°38' W 076°51'2 4.3
2017-Nov-17 04:01N 34°38' W 076°54'0 0.6
2017-Nov-17 03:31N 34°37' W 076°54'2 3.9
2017-Nov-17 03:00N 34°38' W 076°52'2 3.9
2017-Nov-17 02:31N 34°38' W 076°50'2 3.8
2017-Nov-17 02:01N 34°38' W 076°47'0 0.4
2017-Nov-17 01:30N 34°38' W 076°47'2 4.4
2017-Nov-17 01:01N 34°38' W 076°50'2 4.4
2017-Nov-17 00:31N 34°38' W 076°52'2 4.4
2017-Nov-16 23:59N 34°37' W 076°55'2 4.3
2017-Nov-16 23:30N 34°37' W 076°58'3 1.6
2017-Nov-16 21:25N 34°37' W 076°54'2 3.9
2017-Nov-16 21:01N 34°38' W 076°52'2 4.1
2017-Nov-16 20:30N 34°38' W 076°49'2 4.1
2017-Nov-16 20:01N 34°38' W 076°47'2 4.0
2017-Nov-16 19:30N 34°38' W 076°44'2 3.9
2017-Nov-16 19:01N 34°37' W 076°42'2 3.9
2017-Nov-16 18:31N 34°36' W 076°40'2 3.8
2017-Nov-16 18:01N 34°34' W 076°40'3 5.1
2017-Nov-16 17:31N 34°32' W 076°41'3 5.2
2017-Nov-16 17:01N 34°29' W 076°42'2 4.8
2017-Nov-16 16:30N 34°27' W 076°43'1 2.7
2017-Nov-16 16:00N 34°28' W 076°44'3 5.1
2017-Nov-16 15:30N 34°30' W 076°45'3 5.1
2017-Nov-16 15:00N 34°33' W 076°47'3 5.2
2017-Nov-16 14:30N 34°35' W 076°49'3 5.2
2017-Nov-16 14:01N 34°37' W 076°51'1 2.2
2017-Nov-16 13:31N 34°38' W 076°52'2 3.8
2017-Nov-16 13:01N 34°38' W 076°49'2 3.8
2017-Nov-16 12:30N 34°38' W 076°47'1 1.5
2017-Nov-16 12:00N 34°38' W 076°46'2 4.1
2017-Nov-16 11:31N 34°38' W 076°48'2 4.1
2017-Nov-16 11:01N 34°38' W 076°51'2 4.0
2017-Nov-16 10:31N 34°37' W 076°53'2 3.8
2017-Nov-16 10:00N 34°37' W 076°56'2 3.8
2017-Nov-16 09:31N 34°37' W 076°58'1 1.1
2017-Nov-16 08:13N 34°37' W 076°56'1 3.8
2017-Nov-16 08:00N 34°37' W 076°55'1 2.2
2017-Nov-16 07:30N 34°37' W 076°54'2 4.0
2017-Nov-16 07:00N 34°37' W 076°51'2 4.1
2017-Nov-16 06:29N 34°38' W 076°49'2 3.9
2017-Nov-16 06:01N 34°38' W 076°47'0 0.5
2017-Nov-16 05:31N 34°38' W 076°47'2 4.0
2017-Nov-16 05:01N 34°38' W 076°49'2 4.0
2017-Nov-16 04:31N 34°38' W 076°52'2 4.0
2017-Nov-16 04:00N 34°37' W 076°54'3 4.0
2017-Nov-16 03:16N 34°37' W 076°58'3 2.9
2017-Nov-16 02:13N 34°37' W 076°54'1 3.8
2017-Nov-16 01:58N 34°37' W 076°53'2 3.9
2017-Nov-16 01:31N 34°38' W 076°51'2 3.9
2017-Nov-16 01:00N 34°38' W 076°48'2 3.8
2017-Nov-16 00:30N 34°38' W 076°46'1 2.1
2017-Nov-16 00:00N 34°38' W 076°47'2 4.2
2017-Nov-15 23:31N 34°38' W 076°50'2 4.2
2017-Nov-15 23:00N 34°38' W 076°52'2 4.1
2017-Nov-15 22:30N 34°37' W 076°55'2 3.9
2017-Nov-15 21:56N 34°37' W 076°58'2 0.3
2017-Nov-15 16:10N 34°37' W 076°56'1 4.0
2017-Nov-15 15:59N 34°37' W 076°55'2 4.6
2017-Nov-15 15:30N 34°37' W 076°52'2 4.6
2017-Nov-15 15:00N 34°38' W 076°49'2 4.5
2017-Nov-15 14:31N 34°38' W 076°47'2 5.0
2017-Nov-15 14:01N 34°37' W 076°44'1 1.2
2017-Nov-15 13:29N 34°37' W 076°43'2 3.8
2017-Nov-15 13:01N 34°38' W 076°45'0 1.0
2017-Nov-15 12:30N 34°38' W 076°45'2 5.0
2017-Nov-15 12:01N 34°38' W 076°42'1 2.6
2017-Nov-15 11:30N 34°38' W 076°40'1 3.0
2017-Nov-15 11:01N 34°39' W 076°41'1 2.0
2017-Nov-15 10:31N 34°38' W 076°42'3 5.1
2017-Nov-15 10:01N 34°38' W 076°45'3 5.9
2017-Nov-15 09:31N 34°38' W 076°48'2 3.9
2017-Nov-15 09:00N 34°38' W 076°51'2 3.2
2017-Nov-15 08:31N 34°37' W 076°52'2 3.2
2017-Nov-15 08:01N 34°37' W 076°54'2 3.1
2017-Nov-15 07:30N 34°37' W 076°56'2 3.0
2017-Nov-15 07:00N 34°36' W 076°58'2 1.5
2017-Nov-15 05:20N 34°37' W 076°55'1 3.9
2017-Nov-15 04:59N 34°37' W 076°54'2 3.9
2017-Nov-15 04:31N 34°37' W 076°51'2 3.9
2017-Nov-15 04:01N 34°38' W 076°49'0 0.2
2017-Nov-15 03:30N 34°38' W 076°49'2 3.4
2017-Nov-15 03:00N 34°37' W 076°51'2 3.4
2017-Nov-15 02:31N 34°37' W 076°53'2 3.3
2017-Nov-15 02:01N 34°37' W 076°55'2 3.3
2017-Nov-15 01:30N 34°37' W 076°57'4 2.0
2017-Nov-14 23:32N 34°37' W 076°52'0 3.6
2017-Nov-14 23:30N 34°37' W 076°52'2 3.8
2017-Nov-14 23:01N 34°37' W 076°50'2 3.8
2017-Nov-14 22:30N 34°38' W 076°48'2 3.8
2017-Nov-14 22:00N 34°38' W 076°45'2 3.5
2017-Nov-14 21:31N 34°37' W 076°44'1 1.9
2017-Nov-14 21:01N 34°36' W 076°44'2 3.3
2017-Nov-14 20:30N 34°35' W 076°45'2 3.1
2017-Nov-14 20:00N 34°34' W 076°47'2 3.4
2017-Nov-14 19:30N 34°33' W 076°48'  
2017-Nov-12 11:33N 34°38' W 076°51'0 4.4
2017-Nov-12 11:30N 34°38' W 076°51'1 2.0
2017-Nov-12 10:57N 34°38' W 076°52'2 4.6
2017-Nov-12 10:25N 34°37' W 076°55'1 0.5
2017-Nov-12 08:28N 34°37' W 076°54'2 4.6
2017-Nov-12 07:59N 34°38' W 076°52'1 2.6
2017-Nov-12 07:31N 34°38' W 076°50'2 4.2
2017-Nov-12 07:01N 34°37' W 076°53'2 4.1
2017-Nov-12 06:30N 34°37' W 076°55'2 0.7
2017-Nov-12 04:15N 34°38' W 076°53'1 4.8
2017-Nov-12 04:01N 34°38' W 076°52'2 4.8
2017-Nov-12 03:31N 34°38' W 076°49'1 2.3
2017-Nov-12 03:01N 34°38' W 076°47'2 4.0
2017-Nov-12 02:31N 34°38' W 076°50'2 4.0
2017-Nov-12 02:01N 34°38' W 076°52'2 4.1
2017-Nov-12 01:28N 34°38' W 076°55'2 0.9
2017-Nov-11 23:34N 34°38' W 076°53'0 4.6
2017-Nov-11 23:30N 34°38' W 076°53'2 4.6
2017-Nov-11 23:01N 34°38' W 076°50'2 4.5
2017-Nov-11 22:31N 34°38' W 076°47'2 4.6
2017-Nov-11 22:00N 34°38' W 076°44'1 2.6
2017-Nov-11 21:31N 34°38' W 076°43'2 4.0
2017-Nov-11 21:01N 34°38' W 076°45'2 4.3
2017-Nov-11 20:31N 34°35' W 076°45'2 3.8
2017-Nov-11 20:01N 34°34' W 076°46'7 1.6
2017-Nov-11 15:56N 34°37' W 076°53'2 4.5
2017-Nov-11 15:31N 34°37' W 076°51'2 4.4
2017-Nov-11 15:01N 34°37' W 076°48'1 2.6
2017-Nov-11 14:30N 34°38' W 076°50'2 3.9
2017-Nov-11 14:01N 34°38' W 076°52'2 3.9
2017-Nov-11 13:29N 34°37' W 076°54'3 3.8
2017-Nov-11 12:48N 34°37' W 076°57'2 2.0
2017-Nov-11 11:54N 34°37' W 076°55'3 4.3
2017-Nov-11 11:16N 34°38' W 076°52'1 4.3
2017-Nov-11 11:00N 34°38' W 076°51'2 4.3
2017-Nov-11 10:31N 34°38' W 076°48'2 3.6
2017-Nov-11 10:00N 34°38' W 076°46'2 4.2
2017-Nov-11 09:31N 34°38' W 076°48'2 4.2
2017-Nov-11 09:00N 34°38' W 076°51'2 4.2
2017-Nov-11 08:31N 34°37' W 076°53'2 4.2
2017-Nov-11 08:00N 34°37' W 076°56'1 1.1
2017-Nov-11 07:03N 34°37' W 076°55'0 4.4
2017-Nov-11 06:58N 34°37' W 076°54'2 4.5
2017-Nov-11 06:31N 34°38' W 076°52'2 4.6
2017-Nov-11 06:01N 34°38' W 076°49'2 4.6
2017-Nov-11 05:30N 34°38' W 076°46'0 0.9
2017-Nov-11 05:00N 34°38' W 076°47'2 3.7
2017-Nov-11 04:31N 34°38' W 076°49'2 3.6
2017-Nov-11 04:00N 34°38' W 076°51'2 3.7
2017-Nov-11 03:24N 34°37' W 076°54'1 0.3
2017-Nov-11 01:16N 34°37' W 076°53'1 4.9
2017-Nov-11 00:59N 34°38' W 076°51'2 4.9
2017-Nov-11 00:31N 34°38' W 076°49'2 4.3
2017-Nov-11 00:00N 34°38' W 076°46'2 3.6
2017-Nov-10 23:31N 34°38' W 076°48'2 3.6
2017-Nov-10 23:01N 34°38' W 076°50'2 3.8
2017-Nov-10 22:30N 34°37' W 076°53'3 4.2
2017-Nov-10 21:53N 34°37' W 076°56'4 0.6
2017-Nov-10 16:10N 34°38' W 076°51'1 4.3
2017-Nov-10 16:01N 34°38' W 076°51'2 4.3
2017-Nov-10 15:31N 34°38' W 076°48'2 4.4
2017-Nov-10 15:01N 34°38' W 076°45'2 4.5
2017-Nov-10 14:31N 34°39' W 076°43'1 1.2
2017-Nov-10 14:01N 34°39' W 076°42'1 2.0
2017-Nov-10 13:31N 34°39' W 076°43'1 1.9
2017-Nov-10 13:01N 34°39' W 076°42'0 0.9
2017-Nov-10 12:31N 34°39' W 076°42'1 1.3
2017-Nov-10 12:01N 34°39' W 076°43'2 3.8
2017-Nov-10 11:31N 34°38' W 076°45'2 3.8
2017-Nov-10 11:00N 34°38' W 076°48'2 3.9
2017-Nov-10 10:31N 34°38' W 076°50'2 3.9
2017-Nov-10 10:01N 34°37' W 076°52'2 3.9
2017-Nov-10 09:31N 34°37' W 076°55'1 1.9
2017-Nov-10 09:00N 34°37' W 076°54'2 3.8
2017-Nov-10 08:30N 34°37' W 076°56'2 3.9
2017-Nov-10 08:01N 34°37' W 076°58'2 1.7
2017-Nov-10 06:58N 34°37' W 076°56'9 0.5
2017-Nov-09 12:18N 34°36' W 076°46'2 7.9
2017-Nov-09 12:01N 34°38' W 076°45'2 4.4
2017-Nov-09 11:31N 34°38' W 076°48'2 4.1
2017-Nov-09 11:01N 34°38' W 076°51'2 5.0
2017-Nov-09 10:31N 34°38' W 076°48'2 4.2
2017-Nov-09 10:01N 34°38' W 076°45'2 4.6
2017-Nov-09 09:31N 34°38' W 076°48'2 4.8
2017-Nov-09 09:01N 34°38' W 076°51'2 4.8
2017-Nov-09 08:30N 34°37' W 076°54'2 1.3
2017-Nov-09 06:48N 34°37' W 076°51'1 4.9
2017-Nov-09 06:31N 34°38' W 076°49'3 4.9
2017-Nov-09 06:00N 34°38' W 076°46'1 2.2
2017-Nov-09 05:30N 34°38' W 076°45'2 4.6
2017-Nov-09 05:00N 34°38' W 076°48'2 4.6
2017-Nov-09 04:31N 34°38' W 076°50'2 4.5
2017-Nov-09 04:00N 34°38' W 076°53'2 4.8
2017-Nov-09 03:30N 34°37' W 076°56'3 2.5
2017-Nov-09 02:22N 34°37' W 076°53'2 5.3
2017-Nov-09 02:01N 34°38' W 076°50'3 5.3
2017-Nov-09 01:30N 34°38' W 076°47'0 1.0
2017-Nov-09 01:01N 34°38' W 076°48'2 4.9
2017-Nov-09 00:31N 34°37' W 076°51'2 4.8
2017-Nov-09 00:01N 34°37' W 076°54'2 4.8
2017-Nov-08 23:30N 34°37' W 076°57'4 2.0
2017-Nov-08 21:35N 34°37' W 076°52'0 4.2
2017-Nov-08 21:30N 34°37' W 076°52'3 5.2
2017-Nov-08 21:01N 34°38' W 076°48'2 4.3
2017-Nov-08 20:31N 34°36' W 076°47'  
Track history (hours):
 
Tides and Currents Weather Stations Pressure Air Temp Water Temp Dewpoint Dewpoint Depression Visibility Wind Speed Wind Dir Waves Ship Positions

Prevail

Last reported at 2017-Nov-18 17:27 UTC. Time now 2017-Nov-24 16:30 UTC.
Position N 34°38' W 076°52'.

Length 68 m; draft 4.9 m.

Type: Military. MMSI: 367841000.

Date/timePositionNaut miles runAvg speedWind from/ knotsBaromVisibWave heightAir tempDewpointWater temp
2017-Nov-18 17:27N 34°38' W 076°52'2 5.1
2017-Nov-18 17:00N 34°38' W 076°50'3 5.1
2017-Nov-18 16:30N 34°38' W 076°47'3 5.4
2017-Nov-18 16:00N 34°38' W 076°43'3 5.7
2017-Nov-18 15:30N 34°40' W 076°40'4 7.0
2017-Nov-18 15:00N 34°43' W 076°42'0 0.0
2017-Nov-18 14:30N 34°43' W 076°42'0 0.0
2017-Nov-18 14:00N 34°43' W 076°42'0 0.0
2017-Nov-18 13:30N 34°43' W 076°42'0 0.0
2017-Nov-18 13:00N 34°43' W 076°42'0 0.0
2017-Nov-18 12:30N 34°43' W 076°42'0 0.0
2017-Nov-18 12:00N 34°43' W 076°42'0 0.0
2017-Nov-18 11:27N 34°43' W 076°42'0 0.0
2017-Nov-18 11:00N 34°43' W 076°42'0 0.0
2017-Nov-18 10:30N 34°43' W 076°42'0 0.0
2017-Nov-18 10:00N 34°43' W 076°42'0 0.0
2017-Nov-18 09:24N 34°43' W 076°42'0 0.0
2017-Nov-18 09:00N 34°43' W 076°42'0 0.0
2017-Nov-18 08:30N 34°43' W 076°42'0 0.0
2017-Nov-18 08:00N 34°43' W 076°42'0 0.0
2017-Nov-18 07:30N 34°43' W 076°42'0 0.0
2017-Nov-18 07:00N 34°43' W 076°42'0 0.0
2017-Nov-18 06:30N 34°43' W 076°42'0 0.0
2017-Nov-18 06:00N 34°43' W 076°42'0 0.0
2017-Nov-18 05:30N 34°43' W 076°42'0 0.0
2017-Nov-18 05:00N 34°43' W 076°42'0 0.0
2017-Nov-18 04:30N 34°43' W 076°42'0 0.0
2017-Nov-18 04:00N 34°43' W 076°42'0 0.0
2017-Nov-18 03:30N 34°43' W 076°42'0 0.0
2017-Nov-18 03:00N 34°43' W 076°42'0 0.0
2017-Nov-18 02:30N 34°43' W 076°42'0 0.0
2017-Nov-18 02:00N 34°43' W 076°42'0 0.0
2017-Nov-18 01:30N 34°43' W 076°42'0 0.0
2017-Nov-18 01:00N 34°43' W 076°42'0 0.0
2017-Nov-18 00:30N 34°43' W 076°42'0 0.0
2017-Nov-18 00:00N 34°43' W 076°42'0 0.0
2017-Nov-17 23:31N 34°43' W 076°42'2 4.6
2017-Nov-17 23:01N 34°41' W 076°40'5 9.6
2017-Nov-17 22:31N 34°37' W 076°43'6 0.8
2017-Nov-17 15:04N 34°31' W 076°43'0 3.1
2017-Nov-17 15:00N 34°31' W 076°43'1 1.2
2017-Nov-17 14:16N 34°32' W 076°44'2 8.3
2017-Nov-17 13:59N 34°34' W 076°44'3 6.8
2017-Nov-17 13:30N 34°37' W 076°43'2 4.1
2017-Nov-17 13:01N 34°38' W 076°41'0 0.4
2017-Nov-17 12:31N 34°38' W 076°41'1 1.6
2017-Nov-17 12:01N 34°39' W 076°42'3 5.1
2017-Nov-17 11:30N 34°38' W 076°45'2 4.0
2017-Nov-17 11:01N 34°39' W 076°43'0 0.6
2017-Nov-17 10:30N 34°38' W 076°42'2 4.8
2017-Nov-17 10:01N 34°38' W 076°45'2 4.8
2017-Nov-17 09:31N 34°38' W 076°48'2 4.7
2017-Nov-17 09:01N 34°38' W 076°51'2 4.1
2017-Nov-17 08:31N 34°37' W 076°53'2 3.4
2017-Nov-17 08:00N 34°37' W 076°55'1 1.7
2017-Nov-17 07:28N 34°37' W 076°54'2 3.9
2017-Nov-17 07:00N 34°37' W 076°52'2 3.8
2017-Nov-17 06:31N 34°38' W 076°50'2 3.8
2017-Nov-17 06:01N 34°38' W 076°47'1 2.2
2017-Nov-17 05:31N 34°38' W 076°46'2 4.2
2017-Nov-17 05:01N 34°38' W 076°49'2 4.3
2017-Nov-17 04:31N 34°38' W 076°51'2 4.3
2017-Nov-17 04:01N 34°38' W 076°54'0 0.6
2017-Nov-17 03:31N 34°37' W 076°54'2 3.9
2017-Nov-17 03:00N 34°38' W 076°52'2 3.9
2017-Nov-17 02:31N 34°38' W 076°50'2 3.8
2017-Nov-17 02:01N 34°38' W 076°47'0 0.4
2017-Nov-17 01:30N 34°38' W 076°47'2 4.4
2017-Nov-17 01:01N 34°38' W 076°50'2 4.4
2017-Nov-17 00:31N 34°38' W 076°52'2 4.4
2017-Nov-16 23:59N 34°37' W 076°55'2 4.3
2017-Nov-16 23:30N 34°37' W 076°58'3 1.6
2017-Nov-16 21:25N 34°37' W 076°54'2 3.9
2017-Nov-16 21:01N 34°38' W 076°52'2 4.1
2017-Nov-16 20:30N 34°38' W 076°49'2 4.1
2017-Nov-16 20:01N 34°38' W 076°47'2 4.0
2017-Nov-16 19:30N 34°38' W 076°44'2 3.9
2017-Nov-16 19:01N 34°37' W 076°42'2 3.9
2017-Nov-16 18:31N 34°36' W 076°40'2 3.8
2017-Nov-16 18:01N 34°34' W 076°40'3 5.1
2017-Nov-16 17:31N 34°32' W 076°41'3 5.2
2017-Nov-16 17:01N 34°29' W 076°42'2 4.8
2017-Nov-16 16:30N 34°27' W 076°43'1 2.7
2017-Nov-16 16:00N 34°28' W 076°44'3 5.1
2017-Nov-16 15:30N 34°30' W 076°45'3 5.1
2017-Nov-16 15:00N 34°33' W 076°47'3 5.2
2017-Nov-16 14:30N 34°35' W 076°49'3 5.2
2017-Nov-16 14:01N 34°37' W 076°51'1 2.2
2017-Nov-16 13:31N 34°38' W 076°52'2 3.8
2017-Nov-16 13:01N 34°38' W 076°49'2 3.8
2017-Nov-16 12:30N 34°38' W 076°47'1 1.5
2017-Nov-16 12:00N 34°38' W 076°46'2 4.1
2017-Nov-16 11:31N 34°38' W 076°48'2 4.1
2017-Nov-16 11:01N 34°38' W 076°51'2 4.0
2017-Nov-16 10:31N 34°37' W 076°53'2 3.8
2017-Nov-16 10:00N 34°37' W 076°56'2 3.8
2017-Nov-16 09:31N 34°37' W 076°58'1 1.1
2017-Nov-16 08:13N 34°37' W 076°56'1 3.8
2017-Nov-16 08:00N 34°37' W 076°55'1 2.2
2017-Nov-16 07:30N 34°37' W 076°54'2 4.0
2017-Nov-16 07:00N 34°37' W 076°51'2 4.1
2017-Nov-16 06:29N 34°38' W 076°49'2 3.9
2017-Nov-16 06:01N 34°38' W 076°47'0 0.5
2017-Nov-16 05:31N 34°38' W 076°47'2 4.0
2017-Nov-16 05:01N 34°38' W 076°49'2 4.0
2017-Nov-16 04:31N 34°38' W 076°52'2 4.0
2017-Nov-16 04:00N 34°37' W 076°54'3 4.0
2017-Nov-16 03:16N 34°37' W 076°58'3 2.9
2017-Nov-16 02:13N 34°37' W 076°54'1 3.8
2017-Nov-16 01:58N 34°37' W 076°53'2 3.9
2017-Nov-16 01:31N 34°38' W 076°51'2 3.9
2017-Nov-16 01:00N 34°38' W 076°48'2 3.8
2017-Nov-16 00:30N 34°38' W 076°46'1 2.1
2017-Nov-16 00:00N 34°38' W 076°47'2 4.2
2017-Nov-15 23:31N 34°38' W 076°50'2 4.2
2017-Nov-15 23:00N 34°38' W 076°52'2 4.1
2017-Nov-15 22:30N 34°37' W 076°55'2 3.9
2017-Nov-15 21:56N 34°37' W 076°58'2 0.3
2017-Nov-15 16:10N 34°37' W 076°56'1 4.0
2017-Nov-15 15:59N 34°37' W 076°55'2 4.6
2017-Nov-15 15:30N 34°37' W 076°52'2 4.6
2017-Nov-15 15:00N 34°38' W 076°49'2 4.5
2017-Nov-15 14:31N 34°38' W 076°47'2 5.0
2017-Nov-15 14:01N 34°37' W 076°44'1 1.2
2017-Nov-15 13:29N 34°37' W 076°43'2 3.8
2017-Nov-15 13:01N 34°38' W 076°45'0 1.0
2017-Nov-15 12:30N 34°38' W 076°45'2 5.0
2017-Nov-15 12:01N 34°38' W 076°42'1 2.6
2017-Nov-15 11:30N 34°38' W 076°40'1 3.0
2017-Nov-15 11:01N 34°39' W 076°41'1 2.0
2017-Nov-15 10:31N 34°38' W 076°42'3 5.1
2017-Nov-15 10:01N 34°38' W 076°45'3 5.9
2017-Nov-15 09:31N 34°38' W 076°48'2 3.9
2017-Nov-15 09:00N 34°38' W 076°51'2 3.2
2017-Nov-15 08:31N 34°37' W 076°52'2 3.2
2017-Nov-15 08:01N 34°37' W 076°54'2 3.1
2017-Nov-15 07:30N 34°37' W 076°56'2 3.0
2017-Nov-15 07:00N 34°36' W 076°58'2 1.5
2017-Nov-15 05:20N 34°37' W 076°55'1 3.9
2017-Nov-15 04:59N 34°37' W 076°54'2 3.9
2017-Nov-15 04:31N 34°37' W 076°51'2 3.9
2017-Nov-15 04:01N 34°38' W 076°49'0 0.2
2017-Nov-15 03:30N 34°38' W 076°49'2 3.4
2017-Nov-15 03:00N 34°37' W 076°51'2 3.4
2017-Nov-15 02:31N 34°37' W 076°53'2 3.3
2017-Nov-15 02:01N 34°37' W 076°55'2 3.3
2017-Nov-15 01:30N 34°37' W 076°57'4 2.0
2017-Nov-14 23:32N 34°37' W 076°52'0 3.6
2017-Nov-14 23:30N 34°37' W 076°52'2 3.8
2017-Nov-14 23:01N 34°37' W 076°50'2 3.8
2017-Nov-14 22:30N 34°38' W 076°48'2 3.8
2017-Nov-14 22:00N 34°38' W 076°45'2 3.5
2017-Nov-14 21:31N 34°37' W 076°44'1 1.9
2017-Nov-14 21:01N 34°36' W 076°44'2 3.3
2017-Nov-14 20:30N 34°35' W 076°45'2 3.1
2017-Nov-14 20:00N 34°34' W 076°47'2 3.4
2017-Nov-14 19:30N 34°33' W 076°48'  
2017-Nov-12 11:33N 34°38' W 076°51'0 4.4
2017-Nov-12 11:30N 34°38' W 076°51'1 2.0
2017-Nov-12 10:57N 34°38' W 076°52'2 4.6
2017-Nov-12 10:25N 34°37' W 076°55'1 0.5
2017-Nov-12 08:28N 34°37' W 076°54'2 4.6
2017-Nov-12 07:59N 34°38' W 076°52'1 2.6
2017-Nov-12 07:31N 34°38' W 076°50'2 4.2
2017-Nov-12 07:01N 34°37' W 076°53'2 4.1
2017-Nov-12 06:30N 34°37' W 076°55'2 0.7
2017-Nov-12 04:15N 34°38' W 076°53'1 4.8
2017-Nov-12 04:01N 34°38' W 076°52'2 4.8
2017-Nov-12 03:31N 34°38' W 076°49'1 2.3
2017-Nov-12 03:01N 34°38' W 076°47'2 4.0
2017-Nov-12 02:31N 34°38' W 076°50'2 4.0
2017-Nov-12 02:01N 34°38' W 076°52'2 4.1
2017-Nov-12 01:28N 34°38' W 076°55'2 0.9
2017-Nov-11 23:34N 34°38' W 076°53'0 4.6
2017-Nov-11 23:30N 34°38' W 076°53'2 4.6
2017-Nov-11 23:01N 34°38' W 076°50'2 4.5
2017-Nov-11 22:31N 34°38' W 076°47'2 4.6
2017-Nov-11 22:00N 34°38' W 076°44'1 2.6
2017-Nov-11 21:31N 34°38' W 076°43'2 4.0
2017-Nov-11 21:01N 34°38' W 076°45'2 4.3
2017-Nov-11 20:31N 34°35' W 076°45'2 3.8
2017-Nov-11 20:01N 34°34' W 076°46'7 1.6
2017-Nov-11 15:56N 34°37' W 076°53'2 4.5
2017-Nov-11 15:31N 34°37' W 076°51'2 4.4
2017-Nov-11 15:01N 34°37' W 076°48'1 2.6
2017-Nov-11 14:30N 34°38' W 076°50'2 3.9
2017-Nov-11 14:01N 34°38' W 076°52'2 3.9
2017-Nov-11 13:29N 34°37' W 076°54'3 3.8
2017-Nov-11 12:48N 34°37' W 076°57'2 2.0
2017-Nov-11 11:54N 34°37' W 076°55'3 4.3
2017-Nov-11 11:16N 34°38' W 076°52'1 4.3
2017-Nov-11 11:00N 34°38' W 076°51'2 4.3
2017-Nov-11 10:31N 34°38' W 076°48'2 3.6
2017-Nov-11 10:00N 34°38' W 076°46'2 4.2
2017-Nov-11 09:31N 34°38' W 076°48'2 4.2
2017-Nov-11 09:00N 34°38' W 076°51'2 4.2
2017-Nov-11 08:31N 34°37' W 076°53'2 4.2
2017-Nov-11 08:00N 34°37' W 076°56'1 1.1
2017-Nov-11 07:03N 34°37' W 076°55'0 4.4
2017-Nov-11 06:58N 34°37' W 076°54'2 4.5
2017-Nov-11 06:31N 34°38' W 076°52'2 4.6
2017-Nov-11 06:01N 34°38' W 076°49'2 4.6
2017-Nov-11 05:30N 34°38' W 076°46'0 0.9
2017-Nov-11 05:00N 34°38' W 076°47'2 3.7
2017-Nov-11 04:31N 34°38' W 076°49'2 3.6
2017-Nov-11 04:00N 34°38' W 076°51'2 3.7
2017-Nov-11 03:24N 34°37' W 076°54'1 0.3
2017-Nov-11 01:16N 34°37' W 076°53'1 4.9
2017-Nov-11 00:59N 34°38' W 076°51'2 4.9
2017-Nov-11 00:31N 34°38' W 076°49'2 4.3
2017-Nov-11 00:00N 34°38' W 076°46'2 3.6
2017-Nov-10 23:31N 34°38' W 076°48'2 3.6
2017-Nov-10 23:01N 34°38' W 076°50'2 3.8
2017-Nov-10 22:30N 34°37' W 076°53'3 4.2
2017-Nov-10 21:53N 34°37' W 076°56'4 0.6
2017-Nov-10 16:10N 34°38' W 076°51'1 4.3
2017-Nov-10 16:01N 34°38' W 076°51'2 4.3
2017-Nov-10 15:31N 34°38' W 076°48'2 4.4
2017-Nov-10 15:01N 34°38' W 076°45'2 4.5
2017-Nov-10 14:31N 34°39' W 076°43'1 1.2
2017-Nov-10 14:01N 34°39' W 076°42'1 2.0
2017-Nov-10 13:31N 34°39' W 076°43'1 1.9
2017-Nov-10 13:01N 34°39' W 076°42'0 0.9
2017-Nov-10 12:31N 34°39' W 076°42'1 1.3
2017-Nov-10 12:01N 34°39' W 076°43'2 3.8
2017-Nov-10 11:31N 34°38' W 076°45'2 3.8
2017-Nov-10 11:00N 34°38' W 076°48'2 3.9
2017-Nov-10 10:31N 34°38' W 076°50'2 3.9
2017-Nov-10 10:01N 34°37' W 076°52'2 3.9
2017-Nov-10 09:31N 34°37' W 076°55'1 1.9
2017-Nov-10 09:00N 34°37' W 076°54'2 3.8
2017-Nov-10 08:30N 34°37' W 076°56'2 3.9
2017-Nov-10 08:01N 34°37' W 076°58'2 1.7
2017-Nov-10 06:58N 34°37' W 076°56'9 0.5
2017-Nov-09 12:18N 34°36' W 076°46'2 7.9
2017-Nov-09 12:01N 34°38' W 076°45'2 4.4
2017-Nov-09 11:31N 34°38' W 076°48'2 4.1
2017-Nov-09 11:01N 34°38' W 076°51'2 5.0
2017-Nov-09 10:31N 34°38' W 076°48'2 4.2
2017-Nov-09 10:01N 34°38' W 076°45'2 4.6
2017-Nov-09 09:31N 34°38' W 076°48'2 4.8
2017-Nov-09 09:01N 34°38' W 076°51'2 4.8
2017-Nov-09 08:30N 34°37' W 076°54'2 1.3
2017-Nov-09 06:48N 34°37' W 076°51'1 4.9
2017-Nov-09 06:31N 34°38' W 076°49'3 4.9
2017-Nov-09 06:00N 34°38' W 076°46'1 2.2
2017-Nov-09 05:30N 34°38' W 076°45'2 4.6
2017-Nov-09 05:00N 34°38' W 076°48'2 4.6
2017-Nov-09 04:31N 34°38' W 076°50'2 4.5
2017-Nov-09 04:00N 34°38' W 076°53'2 4.8
2017-Nov-09 03:30N 34°37' W 076°56'3 2.5
2017-Nov-09 02:22N 34°37' W 076°53'2 5.3
2017-Nov-09 02:01N 34°38' W 076°50'3 5.3
2017-Nov-09 01:30N 34°38' W 076°47'0 1.0
2017-Nov-09 01:01N 34°38' W 076°48'2 4.9
2017-Nov-09 00:31N 34°37' W 076°51'2 4.8
2017-Nov-09 00:01N 34°37' W 076°54'2 4.8
2017-Nov-08 23:30N 34°37' W 076°57'4 2.0
2017-Nov-08 21:35N 34°37' W 076°52'0 4.2
2017-Nov-08 21:30N 34°37' W 076°52'3 5.2
2017-Nov-08 21:01N 34°38' W 076°48'2 4.3
2017-Nov-08 20:31N 34°36' W 076°47'  

Dump ship's entire track history